createdAt,value
2017-06-30T00:00:23.453Z,0
2017-06-30T00:01:03.927Z,0
2017-06-30T00:01:44.434Z,0
2017-06-30T00:02:24.909Z,0
2017-06-30T00:03:05.385Z,0
2017-06-30T00:03:45.882Z,0
2017-06-30T00:04:26.378Z,0
2017-06-30T00:05:06.860Z,0
2017-06-30T00:05:47.353Z,0
2017-06-30T00:06:27.851Z,0
2017-06-30T00:07:08.323Z,0
2017-06-30T00:07:48.809Z,0
2017-06-30T00:08:29.294Z,0
2017-06-30T00:09:09.781Z,0
2017-06-30T00:09:50.286Z,0
2017-06-30T00:10:30.772Z,0
2017-06-30T00:11:11.267Z,0
2017-06-30T00:11:51.762Z,0
2017-06-30T00:12:32.246Z,0
2017-06-30T00:13:12.738Z,0
2017-06-30T00:13:53.216Z,0
2017-06-30T00:14:33.676Z,0
2017-06-30T00:15:14.130Z,0
2017-06-30T00:15:54.595Z,0
2017-06-30T00:16:35.076Z,0
2017-06-30T00:17:15.530Z,0
2017-06-30T00:17:55.974Z,0
2017-06-30T00:18:36.433Z,0
2017-06-30T00:19:16.888Z,0
2017-06-30T00:19:57.350Z,0
2017-06-30T00:20:37.810Z,0
2017-06-30T00:21:18.258Z,0
2017-06-30T00:21:58.703Z,0
2017-06-30T00:22:39.189Z,0
2017-06-30T00:24:57.002Z,0
2017-06-30T00:25:37.520Z,0
2017-06-30T00:26:17.987Z,0
2017-06-30T00:26:58.500Z,0
2017-06-30T00:27:38.937Z,0
2017-06-30T00:28:19.446Z,0
2017-06-30T00:28:59.929Z,0
2017-06-30T00:29:40.401Z,0
2017-06-30T00:30:20.875Z,0
2017-06-30T00:31:01.370Z,0
2017-06-30T00:31:41.852Z,0
2017-06-30T00:32:22.363Z,0
2017-06-30T00:33:02.822Z,0
2017-06-30T00:33:43.305Z,0
2017-06-30T00:34:23.790Z,0
2017-06-30T00:35:04.296Z,0
2017-06-30T00:35:44.800Z,0
2017-06-30T00:36:25.261Z,0
2017-06-30T00:37:05.750Z,0
2017-06-30T00:37:46.213Z,0
2017-06-30T00:38:26.695Z,0
2017-06-30T00:39:07.174Z,0
2017-06-30T00:39:47.636Z,0
2017-06-30T00:40:28.088Z,0
2017-06-30T00:41:08.550Z,0
2017-06-30T00:41:48.986Z,0
2017-06-30T00:44:22.000Z,0
2017-06-30T00:45:02.482Z,0
2017-06-30T00:45:42.971Z,0
2017-06-30T00:46:23.458Z,0
2017-06-30T00:47:03.956Z,0
2017-06-30T00:47:44.421Z,0
2017-06-30T00:48:24.874Z,0
2017-06-30T00:49:05.323Z,0
2017-06-30T00:51:38.380Z,0
2017-06-30T00:52:18.877Z,0
2017-06-30T00:52:59.362Z,0
2017-06-30T00:53:39.848Z,0
2017-06-30T00:54:20.343Z,0
2017-06-30T00:55:00.832Z,0
2017-06-30T00:55:41.307Z,0
2017-06-30T00:56:21.800Z,0
2017-06-30T00:57:02.294Z,0
2017-06-30T00:57:42.784Z,0
2017-06-30T00:58:23.268Z,0
2017-06-30T00:59:03.744Z,0
2017-06-30T00:59:44.214Z,0
2017-06-30T01:00:24.683Z,0
2017-06-30T01:01:05.128Z,0
2017-06-30T01:01:45.616Z,0
2017-06-30T01:02:26.121Z,0
2017-06-30T01:03:06.609Z,0
2017-06-30T01:03:47.102Z,0
2017-06-30T01:04:27.594Z,0
2017-06-30T01:05:08.091Z,0
2017-06-30T01:05:48.579Z,0
2017-06-30T01:06:29.070Z,0
2017-06-30T01:07:09.586Z,0
2017-06-30T01:07:50.091Z,0
2017-06-30T01:08:30.585Z,0
2017-06-30T01:09:11.069Z,0
2017-06-30T01:09:51.566Z,0
2017-06-30T01:10:32.055Z,0
2017-06-30T01:11:12.553Z,0
2017-06-30T01:11:53.045Z,0
2017-06-30T01:12:33.540Z,0
2017-06-30T01:13:14.033Z,0
2017-06-30T01:13:54.505Z,0
2017-06-30T01:14:35.000Z,0
2017-06-30T01:15:15.484Z,0
2017-06-30T01:15:55.926Z,0
2017-06-30T01:18:23.944Z,0
2017-06-30T01:19:04.368Z,0
2017-06-30T01:19:44.865Z,0
2017-06-30T01:20:25.338Z,0
2017-06-30T01:21:05.822Z,0
2017-06-30T01:21:46.321Z,0
2017-06-30T01:22:26.824Z,0
2017-06-30T01:23:07.299Z,0
2017-06-30T01:23:47.797Z,0
2017-06-30T01:24:28.294Z,0
2017-06-30T01:25:08.791Z,0
2017-06-30T01:25:49.282Z,0
2017-06-30T01:26:29.801Z,0
2017-06-30T01:27:10.235Z,0
2017-06-30T01:27:50.730Z,0
2017-06-30T01:28:31.217Z,0
2017-06-30T01:29:11.715Z,0
2017-06-30T01:29:52.206Z,0
2017-06-30T01:30:32.691Z,0
2017-06-30T01:31:13.195Z,0
2017-06-30T01:31:53.665Z,0
2017-06-30T01:32:34.163Z,0
2017-06-30T01:33:14.658Z,0
2017-06-30T01:33:55.147Z,0
2017-06-30T01:34:35.623Z,0
2017-06-30T01:35:16.101Z,0
2017-06-30T01:35:56.586Z,0
2017-06-30T01:36:37.070Z,0
2017-06-30T01:37:17.559Z,0
2017-06-30T01:37:58.052Z,0
2017-06-30T01:38:38.500Z,0
2017-06-30T01:39:18.963Z,0
2017-06-30T01:39:59.428Z,0
2017-06-30T01:40:39.878Z,0
2017-06-30T01:41:20.332Z,0
2017-06-30T01:42:00.821Z,0
2017-06-30T01:42:41.260Z,0
2017-06-30T01:43:21.713Z,0
2017-06-30T01:44:02.223Z,0
2017-06-30T01:44:42.723Z,0
2017-06-30T01:45:23.201Z,0
2017-06-30T01:46:03.685Z,0
2017-06-30T01:46:44.168Z,0
2017-06-30T01:47:24.621Z,0
2017-06-30T01:48:05.083Z,0
2017-06-30T01:48:45.539Z,0
2017-06-30T01:49:25.979Z,0
2017-06-30T01:51:38.698Z,0
2017-06-30T01:52:19.242Z,0
2017-06-30T01:52:59.678Z,0
2017-06-30T01:53:40.153Z,0
2017-06-30T01:54:20.645Z,0
2017-06-30T01:55:01.115Z,0
2017-06-30T01:57:39.210Z,0
2017-06-30T01:58:19.694Z,0
2017-06-30T01:59:00.192Z,0
2017-06-30T02:01:28.095Z,0
2017-06-30T02:02:08.566Z,0
2017-06-30T02:02:49.057Z,0
2017-06-30T02:03:29.557Z,0
2017-06-30T02:04:10.055Z,0
2017-06-30T02:04:50.589Z,0
2017-06-30T02:05:31.033Z,0
2017-06-30T02:06:11.523Z,0
2017-06-30T02:06:52.002Z,0
2017-06-30T02:07:32.560Z,0
2017-06-30T02:08:13.038Z,0
2017-06-30T02:08:53.528Z,0
2017-06-30T02:09:34.028Z,0
2017-06-30T02:10:14.513Z,0
2017-06-30T02:10:55.010Z,0
2017-06-30T02:11:35.506Z,0
2017-06-30T02:12:15.995Z,0
2017-06-30T02:12:56.483Z,0
2017-06-30T02:13:36.957Z,0
2017-06-30T02:16:04.872Z,0
2017-06-30T02:18:42.988Z,0
2017-06-30T02:19:23.465Z,0
2017-06-30T02:20:03.957Z,0
2017-06-30T02:20:44.419Z,0
2017-06-30T02:21:24.921Z,0
2017-06-30T02:22:05.418Z,0
2017-06-30T02:22:45.881Z,0
2017-06-30T02:23:26.370Z,0
2017-06-30T02:24:06.856Z,0
2017-06-30T02:24:47.339Z,0
2017-06-30T02:25:27.830Z,0
2017-06-30T02:26:08.308Z,0
2017-06-30T02:26:48.803Z,0
2017-06-30T02:27:29.304Z,0
2017-06-30T02:28:09.849Z,0
2017-06-30T02:28:50.274Z,0
2017-06-30T02:29:30.778Z,0
2017-06-30T02:30:11.249Z,0
2017-06-30T02:30:51.743Z,0
2017-06-30T02:31:32.238Z,0
2017-06-30T02:32:12.733Z,0
2017-06-30T02:32:53.229Z,0
2017-06-30T02:33:33.721Z,0
2017-06-30T02:34:14.190Z,0
2017-06-30T02:34:54.674Z,0
2017-06-30T02:35:35.172Z,0
2017-06-30T02:36:15.665Z,0
2017-06-30T02:36:56.144Z,0
2017-06-30T02:37:36.614Z,0
2017-06-30T02:38:17.086Z,0
2017-06-30T02:38:57.578Z,0
2017-06-30T02:39:38.085Z,0
2017-06-30T02:40:18.579Z,0
2017-06-30T02:40:59.071Z,0
2017-06-30T02:41:39.532Z,0
2017-06-30T02:42:19.984Z,0
2017-06-30T02:43:00.433Z,0
2017-06-30T02:43:40.879Z,0
2017-06-30T02:44:21.360Z,0
2017-06-30T02:45:01.846Z,0
2017-06-30T02:45:42.307Z,0
2017-06-30T02:46:22.760Z,0
2017-06-30T02:47:03.248Z,0
2017-06-30T02:49:41.317Z,0
2017-06-30T02:50:21.807Z,0
2017-06-30T02:51:02.289Z,0
2017-06-30T02:51:42.780Z,0
2017-06-30T02:52:23.272Z,0
2017-06-30T02:53:03.767Z,0
2017-06-30T02:53:44.314Z,0
2017-06-30T02:54:24.747Z,0
2017-06-30T02:55:05.250Z,0
2017-06-30T02:55:45.722Z,0
2017-06-30T02:56:26.217Z,0
2017-06-30T02:57:06.728Z,0
2017-06-30T02:57:47.215Z,0
2017-06-30T02:58:27.708Z,0
2017-06-30T02:59:08.205Z,0
2017-06-30T02:59:48.690Z,0
2017-06-30T03:00:29.180Z,0
2017-06-30T03:01:09.675Z,0
2017-06-30T03:01:50.167Z,0
2017-06-30T03:02:30.668Z,0
2017-06-30T03:03:11.151Z,0
2017-06-30T03:03:51.652Z,0
2017-06-30T03:04:32.132Z,0
2017-06-30T03:05:12.635Z,0
2017-06-30T03:05:53.122Z,0
2017-06-30T03:06:33.610Z,0
2017-06-30T03:07:14.106Z,0
2017-06-30T03:07:54.602Z,0
2017-06-30T03:08:35.117Z,0
2017-06-30T03:09:15.583Z,0
2017-06-30T03:09:56.076Z,0
2017-06-30T03:10:36.557Z,0
2017-06-30T03:11:17.023Z,0
2017-06-30T03:11:57.514Z,0
2017-06-30T03:14:35.626Z,0
2017-06-30T03:15:16.101Z,0
2017-06-30T03:15:56.574Z,0
2017-06-30T03:16:37.079Z,0
2017-06-30T03:17:17.558Z,0
2017-06-30T03:17:58.047Z,0
2017-06-30T03:18:38.552Z,0
2017-06-30T03:19:19.051Z,0
2017-06-30T03:19:59.527Z,0
2017-06-30T03:20:40.028Z,0
2017-06-30T03:23:13.045Z,5
2017-06-30T03:23:53.525Z,5
2017-06-30T03:24:34.025Z,5
2017-06-30T03:25:14.502Z,5
2017-06-30T03:25:54.987Z,5
2017-06-30T03:26:35.474Z,5
2017-06-30T03:27:15.976Z,5
2017-06-30T03:27:56.466Z,5
2017-06-30T03:28:36.955Z,5
2017-06-30T03:29:17.433Z,5
2017-06-30T03:29:57.931Z,5
2017-06-30T03:30:38.428Z,5
2017-06-30T03:31:18.902Z,5
2017-06-30T03:31:59.393Z,5
2017-06-30T03:32:39.879Z,5
2017-06-30T03:33:20.367Z,10
2017-06-30T03:34:00.854Z,10
2017-06-30T03:34:41.347Z,10
2017-06-30T03:35:21.877Z,10
2017-06-30T03:36:02.329Z,10
2017-06-30T03:36:42.821Z,10
2017-06-30T03:37:23.320Z,10
2017-06-30T03:38:03.797Z,10
2017-06-30T03:38:44.322Z,10
2017-06-30T03:39:24.777Z,10
2017-06-30T03:40:05.272Z,10
2017-06-30T03:40:45.755Z,10
2017-06-30T03:41:26.229Z,10
2017-06-30T03:42:06.729Z,10
2017-06-30T03:42:47.219Z,15
2017-06-30T03:43:27.722Z,15
2017-06-30T03:44:08.216Z,15
2017-06-30T03:44:48.692Z,15
2017-06-30T03:45:29.199Z,15
2017-06-30T03:46:09.690Z,15
2017-06-30T03:46:50.179Z,15
2017-06-30T03:47:30.652Z,15
2017-06-30T03:48:11.159Z,15
2017-06-30T03:48:51.649Z,15
2017-06-30T03:51:24.641Z,20
2017-06-30T03:52:05.119Z,20
2017-06-30T03:52:45.607Z,20
2017-06-30T03:53:26.067Z,20
2017-06-30T03:54:06.565Z,20
2017-06-30T03:54:47.056Z,20
2017-06-30T03:55:27.546Z,20
2017-06-30T03:56:08.043Z,25
2017-06-30T03:56:48.515Z,25
2017-06-30T03:57:29.002Z,25
2017-06-30T03:58:09.493Z,25
2017-06-30T03:58:49.997Z,25
2017-06-30T03:59:30.468Z,25
2017-06-30T04:00:10.951Z,25
2017-06-30T04:00:51.447Z,25
2017-06-30T04:01:31.931Z,30
2017-06-30T04:02:12.425Z,30
2017-06-30T04:02:52.920Z,30
2017-06-30T04:03:33.415Z,30
2017-06-30T04:04:13.900Z,30
2017-06-30T04:04:54.417Z,30
2017-06-30T04:05:34.915Z,30
2017-06-30T04:06:15.403Z,30
2017-06-30T04:06:56.854Z,35
2017-06-30T04:07:37.349Z,35
2017-06-30T04:08:17.852Z,35
2017-06-30T04:08:58.342Z,35
2017-06-30T04:09:38.838Z,40
2017-06-30T04:10:19.339Z,40
2017-06-30T04:10:59.824Z,40
2017-06-30T04:11:40.312Z,40
2017-06-30T04:12:20.798Z,40
2017-06-30T04:13:01.279Z,40
2017-06-30T04:13:41.758Z,45
2017-06-30T04:14:22.247Z,45
2017-06-30T04:15:02.740Z,45
2017-06-30T04:15:43.227Z,45
2017-06-30T04:16:23.741Z,45
2017-06-30T04:17:04.231Z,45
2017-06-30T04:17:44.691Z,45
2017-06-30T04:18:25.135Z,45
2017-06-30T04:20:42.938Z,50
2017-06-30T04:21:24.014Z,50
2017-06-30T04:22:04.500Z,50
2017-06-30T04:22:44.994Z,50
2017-06-30T04:23:25.475Z,50
2017-06-30T04:24:05.974Z,50
2017-06-30T04:24:46.480Z,50
2017-06-30T04:25:26.958Z,50
2017-06-30T04:26:07.451Z,55
2017-06-30T04:26:47.938Z,55
2017-06-30T04:27:28.427Z,55
2017-06-30T04:28:08.932Z,60
2017-06-30T04:28:49.386Z,60
2017-06-30T04:29:29.891Z,60
2017-06-30T04:30:10.369Z,60
2017-06-30T04:30:50.864Z,60
2017-06-30T04:31:31.358Z,60
2017-06-30T04:32:11.848Z,60
2017-06-30T04:32:52.354Z,60
2017-06-30T04:35:30.432Z,70
2017-06-30T04:36:10.917Z,70
2017-06-30T04:36:51.407Z,75
2017-06-30T04:37:31.922Z,75
2017-06-30T04:38:12.397Z,80
2017-06-30T04:38:52.880Z,90
2017-06-30T04:39:33.362Z,95
2017-06-30T04:40:13.848Z,105
2017-06-30T04:40:54.331Z,110
2017-06-30T04:41:34.844Z,110
2017-06-30T04:42:15.380Z,110
2017-06-30T04:42:55.814Z,85
2017-06-30T04:43:36.291Z,85
2017-06-30T04:44:16.797Z,80
2017-06-30T04:44:57.276Z,85
2017-06-30T04:45:37.761Z,80
2017-06-30T04:46:18.263Z,75
2017-06-30T04:46:58.734Z,75
2017-06-30T04:47:39.218Z,75
2017-06-30T04:48:19.711Z,75
2017-06-30T04:49:00.208Z,75
2017-06-30T04:49:40.693Z,75
2017-06-30T04:50:21.191Z,75
2017-06-30T04:51:01.679Z,75
2017-06-30T04:51:42.168Z,75
2017-06-30T04:52:22.638Z,75
2017-06-30T04:53:03.076Z,80
2017-06-30T04:53:43.587Z,80
2017-06-30T04:54:24.089Z,80
2017-06-30T04:55:04.545Z,80
2017-06-30T04:55:45.022Z,80
2017-06-30T04:56:25.521Z,80
2017-06-30T04:57:06.016Z,80
2017-06-30T04:57:46.501Z,85
2017-06-30T04:58:26.995Z,85
2017-06-30T04:59:07.475Z,85
2017-06-30T04:59:47.943Z,95
2017-06-30T05:02:15.850Z,95
2017-06-30T05:02:56.370Z,100
2017-06-30T05:03:36.884Z,110
2017-06-30T05:04:17.402Z,95
2017-06-30T05:04:57.939Z,85
2017-06-30T05:05:38.417Z,75
2017-06-30T05:06:18.912Z,70
2017-06-30T05:06:59.393Z,70
2017-06-30T05:07:39.908Z,75
2017-06-30T05:08:20.394Z,75
2017-06-30T05:09:00.869Z,80
2017-06-30T05:09:41.371Z,85
2017-06-30T05:10:21.864Z,95
2017-06-30T05:11:02.336Z,105
2017-06-30T05:11:42.812Z,115
2017-06-30T05:12:23.303Z,120
2017-06-30T05:13:03.793Z,120
2017-06-30T05:13:44.268Z,125
2017-06-30T05:16:22.384Z,140
2017-06-30T05:17:02.954Z,140
2017-06-30T05:17:43.382Z,130
2017-06-30T05:18:23.893Z,120
2017-06-30T05:19:04.368Z,110
2017-06-30T05:19:44.868Z,105
2017-06-30T05:20:25.369Z,110
2017-06-30T05:21:05.851Z,115
2017-06-30T05:21:46.359Z,120
2017-06-30T05:22:26.823Z,110
2017-06-30T05:23:07.329Z,100
2017-06-30T05:23:48.776Z,95
2017-06-30T05:24:29.261Z,90
2017-06-30T05:25:09.756Z,90
2017-06-30T05:25:50.242Z,100
2017-06-30T05:26:30.736Z,105
2017-06-30T05:27:11.254Z,105
2017-06-30T05:27:51.783Z,110
2017-06-30T05:28:32.313Z,115
2017-06-30T05:29:12.815Z,120
2017-06-30T05:29:53.310Z,125
2017-06-30T05:30:33.772Z,140
2017-06-30T05:31:14.285Z,170
2017-06-30T05:31:54.787Z,185
2017-06-30T05:32:35.245Z,160
2017-06-30T05:33:15.759Z,140
2017-06-30T05:33:56.263Z,135
2017-06-30T05:34:36.744Z,135
2017-06-30T05:35:17.239Z,130
2017-06-30T05:35:57.770Z,125
2017-06-30T05:36:38.259Z,125
2017-06-30T05:37:18.731Z,130
2017-06-30T05:37:59.247Z,140
2017-06-30T05:38:39.723Z,160
2017-06-30T05:39:20.222Z,185
2017-06-30T05:40:00.702Z,200
2017-06-30T05:40:41.186Z,190
2017-06-30T05:41:21.684Z,195
2017-06-30T05:42:02.160Z,210
2017-06-30T05:42:42.641Z,205
2017-06-30T05:43:23.148Z,200
2017-06-30T05:44:03.642Z,190
2017-06-30T05:44:44.107Z,180
2017-06-30T05:45:24.611Z,155
2017-06-30T05:46:05.119Z,150
2017-06-30T05:46:45.618Z,145
2017-06-30T05:47:26.094Z,150
2017-06-30T05:48:06.584Z,165
2017-06-30T05:48:47.037Z,175
2017-06-30T05:51:15.001Z,145
2017-06-30T05:51:55.466Z,170
2017-06-30T05:52:35.975Z,160
2017-06-30T05:53:16.466Z,190
2017-06-30T05:53:56.962Z,240
2017-06-30T05:54:37.466Z,305
2017-06-30T05:55:17.935Z,355
2017-06-30T05:55:58.469Z,360
2017-06-30T05:56:38.932Z,370
2017-06-30T05:57:19.385Z,395
2017-06-30T05:57:59.877Z,375
2017-06-30T05:58:40.388Z,400
2017-06-30T05:59:20.842Z,370
2017-06-30T06:01:33.585Z,200
2017-06-30T06:02:14.084Z,185
2017-06-30T06:02:54.570Z,155
2017-06-30T06:03:35.093Z,150
2017-06-30T06:04:15.583Z,175
2017-06-30T06:04:56.083Z,305
2017-06-30T06:05:36.577Z,315
2017-06-30T06:06:17.107Z,340
2017-06-30T06:06:57.560Z,380
2017-06-30T06:07:38.043Z,380
2017-06-30T06:08:18.504Z,445
2017-06-30T06:08:59.002Z,435
2017-06-30T06:09:39.487Z,370
2017-06-30T06:10:19.976Z,325
2017-06-30T06:11:00.464Z,270
2017-06-30T06:11:40.956Z,270
2017-06-30T06:12:21.454Z,270
2017-06-30T06:13:01.930Z,270
2017-06-30T06:13:42.423Z,250
2017-06-30T06:14:22.928Z,240
2017-06-30T06:15:03.423Z,225
2017-06-30T06:15:43.910Z,225
2017-06-30T06:18:11.843Z,200
2017-06-30T06:18:52.318Z,305
2017-06-30T06:19:32.818Z,295
2017-06-30T06:20:13.323Z,300
2017-06-30T06:20:53.808Z,290
2017-06-30T06:21:34.314Z,300
2017-06-30T06:22:14.801Z,300
2017-06-30T06:22:55.283Z,305
2017-06-30T06:23:35.766Z,310
2017-06-30T06:25:53.612Z,285
2017-06-30T06:26:34.068Z,270
2017-06-30T06:27:14.575Z,270
2017-06-30T06:27:55.146Z,285
2017-06-30T06:28:35.630Z,320
2017-06-30T06:29:16.116Z,330
2017-06-30T06:29:56.629Z,350
2017-06-30T06:30:37.118Z,370
2017-06-30T06:31:17.589Z,400
2017-06-30T06:31:58.068Z,360
2017-06-30T06:34:10.854Z,365
2017-06-30T06:34:51.359Z,395
2017-06-30T06:35:31.877Z,395
2017-06-30T06:36:12.366Z,390
2017-06-30T06:36:52.880Z,390
2017-06-30T06:37:33.380Z,380
2017-06-30T06:38:13.890Z,150
2017-06-30T06:38:54.382Z,390
2017-06-30T06:39:34.883Z,305
2017-06-30T06:40:15.370Z,390
2017-06-30T06:40:55.868Z,395
2017-06-30T06:41:36.333Z,395
2017-06-30T06:42:16.818Z,395
2017-06-30T06:42:57.307Z,400
2017-06-30T06:43:37.804Z,410
2017-06-30T06:44:18.300Z,450
2017-06-30T06:44:58.809Z,450
2017-06-30T06:45:39.302Z,420
2017-06-30T06:46:19.818Z,420
2017-06-30T06:47:00.310Z,420
2017-06-30T06:47:40.808Z,425
2017-06-30T06:48:21.262Z,430
2017-06-30T06:49:01.784Z,415
2017-06-30T06:49:42.269Z,390
2017-06-30T06:50:22.756Z,360
2017-06-30T06:51:03.254Z,390
2017-06-30T06:51:43.745Z,385
2017-06-30T06:52:24.202Z,370
2017-06-30T06:53:04.707Z,370
2017-06-30T06:53:45.192Z,380
2017-06-30T06:54:25.713Z,385
2017-06-30T06:55:06.202Z,350
2017-06-30T06:55:46.655Z,305
2017-06-30T06:56:27.164Z,345
2017-06-30T06:57:07.685Z,355
2017-06-30T06:57:48.174Z,365
2017-06-30T06:58:28.667Z,370
2017-06-30T06:59:09.163Z,360
2017-06-30T06:59:49.668Z,355
2017-06-30T07:00:30.173Z,295
2017-06-30T07:03:08.285Z,350
2017-06-30T07:03:48.805Z,395
2017-06-30T07:04:29.235Z,435
2017-06-30T07:07:07.390Z,490
2017-06-30T07:07:47.849Z,500
2017-06-30T07:08:28.346Z,530
2017-06-30T07:09:08.843Z,450
2017-06-30T07:09:49.351Z,560
2017-06-30T07:10:29.840Z,550
2017-06-30T07:11:10.332Z,545
2017-06-30T07:11:50.835Z,215
2017-06-30T07:12:31.306Z,540
2017-06-30T07:13:11.780Z,565
2017-06-30T07:13:52.283Z,595
2017-06-30T07:14:32.803Z,475
2017-06-30T07:15:13.330Z,585
2017-06-30T07:15:53.869Z,600
2017-06-30T07:16:34.429Z,640
2017-06-30T07:17:14.895Z,650
2017-06-30T07:17:55.413Z,620
2017-06-30T07:18:35.956Z,620
2017-06-30T07:19:16.448Z,630
2017-06-30T07:19:56.890Z,650
2017-06-30T07:20:37.372Z,695
2017-06-30T07:21:17.799Z,675
2017-06-30T07:23:45.799Z,630
2017-06-30T07:24:26.867Z,645
2017-06-30T07:25:07.366Z,640
2017-06-30T07:25:47.919Z,640
2017-06-30T07:26:28.422Z,705
2017-06-30T07:27:08.924Z,760
2017-06-30T07:27:49.435Z,750
2017-06-30T07:28:29.930Z,730
2017-06-30T07:29:10.462Z,695
2017-06-30T07:29:50.935Z,265
2017-06-30T07:30:31.384Z,200
2017-06-30T07:31:11.894Z,570
2017-06-30T07:31:52.387Z,665
2017-06-30T07:32:32.883Z,685
2017-06-30T07:33:13.369Z,720
2017-06-30T07:33:53.862Z,335
2017-06-30T07:34:34.339Z,375
2017-06-30T07:35:14.834Z,365
2017-06-30T07:35:55.334Z,790
2017-06-30T07:36:35.834Z,795
2017-06-30T07:37:16.337Z,765
2017-06-30T07:37:56.812Z,765
2017-06-30T07:38:37.340Z,845
2017-06-30T07:39:17.802Z,320
2017-06-30T07:39:58.329Z,335
2017-06-30T07:40:38.847Z,510
2017-06-30T07:41:19.312Z,775
2017-06-30T07:41:59.871Z,465
2017-06-30T07:42:40.367Z,825
2017-06-30T07:43:20.873Z,980
2017-06-30T07:44:01.384Z,720
2017-06-30T07:44:42.623Z,1110
2017-06-30T07:45:23.142Z,1075
2017-06-30T07:46:03.650Z,605
2017-06-30T07:46:44.146Z,1085
2017-06-30T07:47:24.700Z,1130
2017-06-30T07:49:57.792Z,1255
2017-06-30T07:50:38.267Z,250
2017-06-30T07:51:18.796Z,2355
2017-06-30T07:53:46.719Z,2525
2017-06-30T07:54:27.202Z,2515
2017-06-30T07:55:07.726Z,2285
2017-06-30T07:55:48.252Z,2155
2017-06-30T07:56:28.828Z,2110
2017-06-30T07:57:10.370Z,2060
2017-06-30T07:57:50.894Z,2175
2017-06-30T07:58:31.388Z,2200
2017-06-30T07:59:11.944Z,2265
2017-06-30T07:59:52.478Z,2045
2017-06-30T08:00:32.948Z,1975
2017-06-30T08:01:13.447Z,1895
2017-06-30T08:01:53.964Z,1940
2017-06-30T08:02:34.432Z,1605
2017-06-30T08:03:14.919Z,1655
2017-06-30T08:03:55.396Z,2320
2017-06-30T08:04:35.908Z,2275
2017-06-30T08:05:16.408Z,505
2017-06-30T08:05:56.879Z,380
2017-06-30T08:06:37.370Z,2670
2017-06-30T08:07:17.851Z,625
2017-06-30T08:07:58.341Z,2100
2017-06-30T08:08:38.835Z,390
2017-06-30T08:09:19.312Z,2165
2017-06-30T08:09:59.809Z,655
2017-06-30T08:10:40.281Z,1155
2017-06-30T08:12:58.135Z,480
2017-06-30T08:13:38.657Z,1390
2017-06-30T08:14:19.148Z,2730
2017-06-30T08:14:59.625Z,2545
2017-06-30T08:15:40.121Z,2415
2017-06-30T08:16:20.617Z,2320
2017-06-30T08:17:01.119Z,2600
2017-06-30T08:17:41.659Z,2690
2017-06-30T08:18:22.144Z,2710
2017-06-30T08:19:02.653Z,710
2017-06-30T08:19:43.135Z,2715
2017-06-30T08:20:23.651Z,470
2017-06-30T08:21:04.150Z,2245
2017-06-30T08:21:44.642Z,1305
2017-06-30T08:22:25.127Z,1540
2017-06-30T08:23:05.658Z,1305
2017-06-30T08:23:46.150Z,565
2017-06-30T08:24:26.632Z,925
2017-06-30T08:25:07.152Z,820
2017-06-30T08:25:47.688Z,755
2017-06-30T08:26:28.235Z,765
2017-06-30T08:27:08.741Z,755
2017-06-30T08:27:49.237Z,805
2017-06-30T08:28:29.741Z,780
2017-06-30T08:29:10.202Z,805
2017-06-30T08:31:38.205Z,645
2017-06-30T08:32:18.717Z,650
2017-06-30T08:32:59.263Z,655
2017-06-30T08:33:39.741Z,685
2017-06-30T08:34:20.270Z,715
2017-06-30T08:35:00.765Z,745
2017-06-30T08:35:41.290Z,770
2017-06-30T08:36:21.816Z,780
2017-06-30T08:37:02.300Z,760
2017-06-30T08:37:42.785Z,705
2017-06-30T08:38:23.294Z,730
2017-06-30T08:39:03.731Z,685
2017-06-30T08:39:44.207Z,700
2017-06-30T08:40:24.702Z,590
2017-06-30T08:41:05.184Z,600
2017-06-30T08:41:45.651Z,540
2017-06-30T08:42:26.146Z,610
2017-06-30T08:43:06.631Z,520
2017-06-30T08:43:47.109Z,465
2017-06-30T08:44:27.546Z,560
2017-06-30T08:46:55.550Z,615
2017-06-30T08:47:36.038Z,710
2017-06-30T08:48:16.515Z,740
2017-06-30T08:48:57.017Z,535
2017-06-30T08:49:37.500Z,720
2017-06-30T08:50:17.981Z,450
2017-06-30T08:50:58.492Z,440
2017-06-30T08:51:38.989Z,415
2017-06-30T08:52:19.493Z,455
2017-06-30T08:52:59.969Z,385
2017-06-30T08:53:40.478Z,1110
2017-06-30T08:54:20.988Z,385
2017-06-30T08:55:01.463Z,370
2017-06-30T08:55:41.970Z,680
2017-06-30T08:56:22.475Z,510
2017-06-30T08:57:02.982Z,1550
2017-06-30T08:57:43.480Z,1580
2017-06-30T08:58:23.972Z,1710
2017-06-30T09:00:51.905Z,1175
2017-06-30T09:01:32.391Z,2125
2017-06-30T09:02:12.869Z,435
2017-06-30T09:02:53.366Z,2185
2017-06-30T09:03:33.872Z,2335
2017-06-30T09:04:14.419Z,2375
2017-06-30T09:04:54.972Z,775
2017-06-30T09:05:35.458Z,2260
2017-06-30T09:06:15.927Z,1405
2017-06-30T09:06:56.435Z,2240
2017-06-30T09:07:36.945Z,335
2017-06-30T09:08:17.524Z,365
2017-06-30T09:08:58.081Z,2150
2017-06-30T09:09:38.577Z,2145
2017-06-30T09:10:19.055Z,495
2017-06-30T09:10:59.543Z,595
2017-06-30T09:11:40.056Z,370
2017-06-30T09:12:20.555Z,350
2017-06-30T09:13:01.068Z,1705
2017-06-30T09:13:41.529Z,565
2017-06-30T09:14:22.016Z,2005
2017-06-30T09:15:02.532Z,1865
2017-06-30T09:15:43.041Z,1815
2017-06-30T09:18:11.325Z,620
2017-06-30T09:18:51.848Z,2025
2017-06-30T09:19:32.339Z,450
2017-06-30T09:20:12.870Z,730
2017-06-30T09:20:53.403Z,445
2017-06-30T09:21:33.873Z,570
2017-06-30T09:22:14.341Z,745
2017-06-30T09:22:54.860Z,655
2017-06-30T09:23:35.357Z,460
2017-06-30T09:24:15.871Z,565
2017-06-30T09:24:56.352Z,2100
2017-06-30T09:25:36.822Z,1380
2017-06-30T09:26:17.319Z,860
2017-06-30T09:26:57.836Z,690
2017-06-30T09:27:38.344Z,470
2017-06-30T09:28:18.889Z,410
2017-06-30T09:28:59.422Z,440
2017-06-30T09:31:37.542Z,2160
2017-06-30T09:32:18.079Z,3520
2017-06-30T09:32:58.639Z,3640
2017-06-30T09:33:39.149Z,1790
2017-06-30T09:35:56.975Z,505
2017-06-30T09:36:37.468Z,490
2017-06-30T09:37:17.968Z,505
2017-06-30T09:37:58.447Z,4115
2017-06-30T09:38:38.913Z,2355
2017-06-30T09:39:19.441Z,420
2017-06-30T09:39:59.897Z,415
2017-06-30T09:40:40.369Z,925
2017-06-30T09:41:20.869Z,420
2017-06-30T09:42:01.333Z,455
2017-06-30T09:44:39.531Z,450
2017-06-30T09:45:20.026Z,480
2017-06-30T09:46:00.504Z,500
2017-06-30T09:46:41.026Z,490
2017-06-30T09:47:21.525Z,630
2017-06-30T09:48:02.062Z,1115
2017-06-30T09:48:42.547Z,540
2017-06-30T09:49:23.042Z,515
2017-06-30T09:50:03.529Z,1030
2017-06-30T09:50:44.053Z,4175
2017-06-30T09:51:24.559Z,4215
2017-06-30T09:52:05.073Z,4180
2017-06-30T09:52:45.560Z,4200
2017-06-30T09:53:26.055Z,4235
2017-06-30T09:54:06.505Z,4265
2017-06-30T09:54:46.964Z,4280
2017-06-30T09:55:27.443Z,2835
2017-06-30T09:56:07.917Z,4165
2017-06-30T09:58:46.030Z,2445
2017-06-30T09:59:26.485Z,485
2017-06-30T10:00:06.975Z,375
2017-06-30T10:00:47.494Z,1500
2017-06-30T10:01:28.018Z,1455
2017-06-30T10:02:08.492Z,1475
2017-06-30T10:02:48.984Z,615
2017-06-30T10:03:29.511Z,695
2017-06-30T10:04:09.999Z,1675
2017-06-30T10:04:50.487Z,1415
2017-06-30T10:05:30.971Z,1705
2017-06-30T10:06:11.443Z,835
2017-06-30T10:06:51.923Z,1505
2017-06-30T10:09:09.779Z,505
2017-06-30T10:09:50.964Z,510
2017-06-30T10:10:31.451Z,495
2017-06-30T10:11:11.892Z,540
2017-06-30T10:11:52.393Z,520
2017-06-30T10:14:20.353Z,3915
2017-06-30T10:15:00.875Z,2740
2017-06-30T10:15:41.407Z,2880
2017-06-30T10:16:21.891Z,1515
2017-06-30T10:17:02.398Z,4285
2017-06-30T10:17:42.901Z,4330
2017-06-30T10:18:23.431Z,4315
2017-06-30T10:19:04.007Z,4295
2017-06-30T10:19:44.574Z,4260
2017-06-30T10:20:25.142Z,3455
2017-06-30T10:21:05.719Z,875
2017-06-30T10:21:46.310Z,2950
2017-06-30T10:22:26.913Z,4245
2017-06-30T10:23:07.519Z,4060
2017-06-30T10:23:48.135Z,3980
2017-06-30T10:24:28.733Z,3885
2017-06-30T10:25:09.355Z,470
2017-06-30T10:25:49.931Z,480
2017-06-30T10:26:30.540Z,430
2017-06-30T10:27:11.158Z,390
2017-06-30T10:27:51.721Z,3830
2017-06-30T10:28:32.345Z,1450
2017-06-30T10:29:12.929Z,3875
2017-06-30T10:29:53.530Z,3855
2017-06-30T10:30:34.091Z,3810
2017-06-30T10:31:14.723Z,3090
2017-06-30T10:31:55.304Z,1920
2017-06-30T10:32:35.942Z,860
2017-06-30T10:33:16.553Z,640
2017-06-30T10:33:57.177Z,605
2017-06-30T10:34:37.826Z,545
2017-06-30T10:35:18.398Z,515
2017-06-30T10:35:59.042Z,480
2017-06-30T10:36:39.634Z,450
2017-06-30T10:37:20.297Z,445
2017-06-30T10:38:00.896Z,450
2017-06-30T10:38:41.467Z,435
2017-06-30T10:39:22.099Z,430
2017-06-30T10:40:02.733Z,435